createdAt,value
2019-02-12T00:02:27.977Z,75.68
2019-02-12T00:04:57.500Z,75.89
2019-02-12T00:07:27.088Z,75.92
2019-02-12T00:09:56.891Z,75.92
2019-02-12T00:12:26.402Z,75.76
2019-02-12T00:14:55.963Z,75.97
2019-02-12T00:17:25.496Z,76.02
2019-02-12T00:19:55.060Z,76.11
2019-02-12T00:22:24.647Z,76.46
2019-02-12T00:24:54.173Z,76.35
2019-02-12T00:27:23.699Z,76.85
2019-02-12T00:29:54.884Z,77.01
2019-02-12T00:32:24.424Z,76.94
2019-02-12T00:34:53.984Z,76.83
2019-02-12T00:37:23.550Z,77.04
2019-02-12T00:39:53.073Z,77.29
2019-02-12T00:42:25.534Z,77.50
2019-02-12T00:44:55.068Z,77.46
2019-02-12T00:47:24.611Z,77.80
2019-02-12T00:49:55.224Z,77.76
2019-02-12T00:52:24.755Z,77.82
2019-02-12T00:54:54.293Z,77.97
2019-02-12T00:57:23.871Z,77.98
2019-02-12T00:59:53.674Z,77.86
2019-02-12T01:02:23.241Z,77.85
2019-02-12T01:04:52.764Z,77.80
2019-02-12T01:07:22.394Z,77.82
2019-02-12T01:09:54.008Z,77.83
2019-02-12T01:12:23.565Z,77.98
2019-02-12T01:14:56.931Z,78.44
2019-02-12T01:17:26.451Z,78.55
2019-02-12T01:19:55.991Z,78.35
2019-02-12T01:22:25.537Z,78.62
2019-02-12T01:24:55.085Z,78.61
2019-02-12T01:27:24.641Z,78.49
2019-02-12T01:29:54.419Z,78.59
2019-02-12T01:32:24.026Z,78.74
2019-02-12T01:37:23.609Z,78.79
2019-02-12T01:39:53.146Z,78.94
2019-02-12T01:42:22.701Z,78.90
2019-02-12T01:44:52.229Z,78.82
2019-02-12T01:47:21.781Z,78.64
2019-02-12T01:49:51.312Z,78.48
2019-02-12T01:52:20.852Z,78.51
2019-02-12T01:54:50.424Z,78.50
2019-02-12T01:57:19.969Z,78.53
2019-02-12T01:59:49.502Z,78.33
2019-02-12T02:02:19.105Z,78.12
2019-02-12T02:04:48.668Z,77.98
2019-02-12T02:07:19.718Z,77.83
2019-02-12T02:09:49.732Z,77.73
2019-02-12T02:12:20.854Z,77.66
2019-02-12T02:14:50.389Z,77.70
2019-02-12T02:17:19.941Z,77.70
2019-02-12T02:19:49.464Z,77.76
2019-02-12T02:22:19.033Z,77.79
2019-02-12T02:24:48.622Z,77.97
2019-02-12T02:27:18.174Z,77.98
2019-02-12T02:32:25.559Z,78.04
2019-02-12T02:34:55.103Z,78.04
2019-02-12T02:37:24.650Z,78.16
2019-02-12T02:39:54.295Z,78.37
2019-02-12T02:42:23.855Z,78.29
2019-02-12T02:44:53.382Z,78.47
2019-02-12T02:47:22.940Z,78.39
2019-02-12T02:49:52.546Z,78.44
2019-02-12T02:52:22.106Z,78.56
2019-02-12T02:54:51.610Z,78.46
2019-02-12T02:57:21.169Z,78.41
2019-02-12T02:59:50.724Z,78.87
2019-02-12T03:02:20.260Z,78.78
2019-02-12T03:04:49.811Z,78.55
2019-02-12T03:07:19.360Z,78.44
2019-02-12T03:09:48.905Z,78.94
2019-02-12T03:12:19.365Z,78.90
2019-02-12T03:14:48.952Z,78.92
2019-02-12T03:17:18.551Z,78.84
2019-02-12T03:19:48.044Z,78.99
2019-02-12T03:22:17.627Z,78.83
2019-02-12T03:24:47.160Z,78.96
2019-02-12T03:27:16.689Z,78.91
2019-02-12T03:29:46.245Z,79.01
2019-02-12T03:32:15.795Z,79.08
2019-02-12T03:34:45.315Z,79.01
2019-02-12T03:37:16.687Z,78.95
2019-02-12T03:39:46.291Z,79.15
2019-02-12T03:42:15.795Z,79.14
2019-02-12T03:44:45.374Z,79.54
2019-02-12T03:47:14.957Z,79.78
2019-02-12T03:49:44.470Z,79.68
2019-02-12T03:52:14.055Z,79.63
2019-02-12T03:54:43.704Z,79.74
2019-02-12T03:57:13.234Z,79.97
2019-02-12T03:59:42.775Z,79.92
2019-02-12T04:02:12.416Z,80.06
2019-02-12T04:04:41.962Z,80.07
2019-02-12T04:07:11.498Z,80.01
2019-02-12T04:09:41.059Z,80.17
2019-02-12T04:12:10.604Z,79.97
2019-02-12T04:14:40.130Z,79.80
2019-02-12T04:17:09.948Z,79.63
2019-02-12T04:19:40.771Z,79.75
2019-02-12T04:22:10.288Z,79.85
2019-02-12T04:24:39.818Z,79.73
2019-02-12T04:27:09.356Z,79.81
2019-02-12T04:29:38.954Z,79.87
2019-02-12T04:32:10.924Z,79.97
2019-02-12T04:34:40.158Z,79.97
2019-02-12T04:37:09.714Z,79.97
2019-02-12T04:39:39.247Z,80.08
2019-02-12T04:42:08.790Z,80.08
2019-02-12T04:44:38.370Z,80.01
2019-02-12T04:47:07.909Z,79.94
2019-02-12T04:49:38.636Z,80.52
2019-02-12T04:52:08.186Z,80.48
2019-02-12T04:54:37.747Z,80.41
2019-02-12T04:57:07.599Z,80.61
2019-02-12T04:59:37.135Z,80.79
2019-02-12T05:02:06.695Z,80.67
2019-02-12T05:04:36.222Z,80.47
2019-02-12T05:07:05.794Z,80.33
2019-02-12T05:09:40.449Z,80.45
2019-02-12T05:12:10.012Z,80.50
2019-02-12T05:14:39.561Z,80.58
2019-02-12T05:17:12.427Z,80.93
2019-02-12T05:19:41.935Z,80.99
2019-02-12T05:22:11.486Z,80.95
2019-02-12T05:24:41.031Z,81.12
2019-02-12T05:27:10.596Z,81.21
2019-02-12T05:29:40.144Z,81.11
2019-02-12T05:32:09.710Z,81.04
2019-02-12T05:34:39.274Z,80.87
2019-02-12T05:37:10.667Z,80.92
2019-02-12T05:39:40.274Z,80.80
2019-02-12T05:42:10.086Z,81.01
2019-02-12T05:44:39.625Z,80.96
2019-02-12T05:47:09.200Z,81.02
2019-02-12T05:49:38.727Z,81.03
2019-02-12T05:52:08.436Z,81.14
2019-02-12T05:54:38.049Z,81.09
2019-02-12T05:57:07.593Z,81.02
2019-02-12T05:59:37.118Z,81.27
2019-02-12T06:02:07.049Z,81.17
2019-02-12T06:04:36.603Z,81.17
2019-02-12T06:07:06.118Z,81.30
2019-02-12T06:09:35.934Z,81.54
2019-02-12T06:12:05.660Z,81.54
2019-02-12T06:14:35.181Z,81.50
2019-02-12T06:17:06.262Z,81.47
2019-02-12T06:19:35.808Z,81.47
2019-02-12T06:22:05.560Z,81.39
2019-02-12T06:24:35.133Z,81.31
2019-02-12T06:27:05.729Z,81.19
2019-02-12T06:29:35.241Z,81.11
2019-02-12T06:32:05.105Z,81.00
2019-02-12T06:34:34.623Z,80.89
2019-02-12T06:37:05.721Z,80.84
2019-02-12T06:39:35.264Z,80.93
2019-02-12T06:42:06.084Z,80.90
2019-02-12T06:44:35.655Z,80.85
2019-02-12T06:47:05.217Z,80.84
2019-02-12T06:49:36.651Z,80.79
2019-02-12T06:52:10.555Z,80.73
2019-02-12T06:54:40.104Z,80.68
2019-02-12T06:57:09.919Z,80.70
2019-02-12T06:59:40.310Z,80.71
2019-02-12T07:03:03.998Z,81.03
2019-02-12T07:05:34.146Z,81.15
2019-02-12T07:08:41.960Z,80.98
2019-02-12T07:11:34.659Z,80.97
2019-02-12T07:14:43.862Z,81.09
2019-02-12T07:17:47.104Z,81.01
2019-02-12T07:20:49.964Z,81.01
2019-02-12T07:23:43.558Z,81.05
2019-02-12T07:26:29.060Z,80.95
2019-02-12T07:29:10.331Z,80.96
2019-02-12T07:31:44.605Z,80.81
2019-02-12T07:34:27.403Z,80.65
2019-02-12T07:37:19.262Z,80.89
2019-02-12T07:39:56.183Z,81.01
2019-02-12T07:42:38.890Z,81.12
2019-02-12T07:45:18.753Z,81.02
2019-02-12T07:48:14.141Z,81.24
2019-02-12T07:50:48.660Z,81.24
2019-02-12T07:53:31.769Z,81.22
2019-02-12T07:56:28.144Z,81.03
2019-02-12T07:59:40.133Z,80.82
2019-02-12T08:02:50.635Z,80.71
2019-02-12T08:05:36.783Z,80.61
2019-02-12T08:08:32.196Z,80.56
2019-02-12T08:11:18.973Z,80.50
2019-02-12T08:14:10.972Z,80.45
2019-02-12T08:16:54.245Z,80.27
2019-02-12T08:19:52.797Z,80.24
2019-02-12T08:22:55.476Z,80.11
2019-02-12T08:25:41.322Z,80.16
2019-02-12T08:28:31.464Z,80.14
2019-02-12T08:31:14.842Z,79.98
2019-02-12T08:34:17.620Z,79.84
2019-02-12T08:36:57.577Z,79.98
2019-02-12T08:39:46.270Z,79.78
2019-02-12T08:42:32.222Z,79.70
2019-02-12T08:45:18.560Z,79.65
2019-02-12T08:48:11.086Z,79.50
2019-02-12T08:50:54.521Z,79.62
2019-02-12T08:53:59.186Z,79.59
2019-02-12T08:56:54.122Z,79.51
2019-02-12T08:59:50.542Z,79.37
2019-02-12T09:02:48.537Z,79.29
2019-02-12T09:05:38.558Z,79.27
2019-02-12T09:08:12.823Z,79.43
2019-02-12T09:11:05.136Z,79.56
2019-02-12T09:13:48.669Z,79.42
2019-02-12T09:16:35.142Z,79.54
2019-02-12T09:19:25.352Z,80.26
2019-02-12T09:22:08.282Z,79.85
2019-02-12T09:24:51.499Z,79.74
2019-02-12T09:27:28.940Z,79.77
2019-02-12T09:30:05.594Z,79.61
2019-02-12T09:32:49.220Z,79.58
2019-02-12T09:35:34.975Z,79.42
2019-02-12T09:38:26.898Z,79.38
2019-02-12T09:41:25.586Z,79.28
2019-02-12T09:44:16.298Z,79.03
2019-02-12T09:47:16.024Z,78.92
2019-02-12T09:49:59.044Z,79.10
2019-02-12T09:52:52.739Z,79.04
2019-02-12T09:55:42.115Z,78.97
2019-02-12T09:58:37.327Z,78.85
2019-02-12T10:01:31.190Z,78.77
2019-02-12T10:04:42.566Z,79.02
2019-02-12T10:07:25.469Z,78.95
2019-02-12T10:10:14.459Z,78.88
2019-02-12T10:13:00.339Z,78.73
2019-02-12T10:15:54.519Z,78.71
2019-02-12T10:18:38.057Z,78.74
2019-02-12T10:21:39.463Z,78.72
2019-02-12T10:24:30.164Z,78.68
2019-02-12T10:27:25.638Z,78.54
2019-02-12T10:30:26.931Z,78.43
2019-02-12T10:32:56.772Z,78.20
2019-02-12T10:35:26.555Z,78.10
2019-02-12T10:37:56.204Z,77.95
2019-02-12T10:40:27.132Z,77.77
2019-02-12T10:42:56.798Z,78.07
2019-02-12T10:45:26.968Z,78.00
2019-02-12T10:47:56.508Z,77.85
2019-02-12T10:50:26.065Z,77.60
2019-02-12T10:52:56.528Z,77.09
2019-02-12T10:55:26.496Z,77.09
2019-02-12T10:57:56.077Z,76.81
2019-02-12T11:00:25.636Z,76.57
2019-02-12T11:02:55.666Z,76.34
2019-02-12T11:05:25.623Z,76.19
2019-02-12T11:07:57.697Z,75.64
2019-02-12T11:10:27.220Z,75.65
2019-02-12T11:12:58.299Z,75.18
2019-02-12T11:15:29.517Z,75.11
2019-02-12T11:17:59.145Z,75.10
2019-02-12T11:20:29.046Z,75.12
2019-02-12T11:22:59.380Z,75.09
2019-02-12T11:25:29.594Z,74.46
2019-02-12T11:27:59.262Z,74.12
2019-02-12T11:30:28.809Z,73.99
2019-02-12T11:32:58.524Z,73.75
2019-02-12T11:35:28.608Z,73.95
2019-02-12T11:37:58.233Z,74.01
2019-02-12T11:40:27.793Z,73.39
2019-02-12T11:42:59.195Z,73.32
2019-02-12T11:45:29.261Z,73.18
2019-02-12T11:48:00.294Z,73.20
2019-02-12T11:50:29.876Z,73.21
2019-02-12T11:53:03.404Z,72.87
2019-02-12T11:55:33.302Z,72.51
2019-02-12T11:58:07.866Z,71.70
2019-02-12T12:00:45.357Z,71.62
2019-02-12T12:03:15.219Z,70.82
2019-02-12T12:05:44.820Z,70.95
2019-02-12T12:08:14.422Z,70.67
2019-02-12T12:10:45.518Z,70.27
2019-02-12T12:13:15.043Z,70.11
2019-02-12T12:15:45.109Z,69.67
2019-02-12T12:18:15.267Z,69.62
2019-02-12T12:20:45.176Z,69.47
2019-02-12T12:23:15.377Z,68.32
2019-02-12T12:25:46.848Z,68.42
2019-02-12T12:28:19.399Z,68.52
2019-02-12T12:30:49.005Z,68.13
2019-02-12T12:33:18.715Z,67.95
2019-02-12T12:35:48.515Z,67.90
2019-02-12T12:38:18.073Z,66.72
2019-02-12T12:40:47.597Z,66.95
2019-02-12T12:43:17.529Z,66.84
2019-02-12T12:45:47.523Z,66.30
2019-02-12T12:48:17.746Z,67.01
2019-02-12T12:50:47.547Z,67.29
2019-02-12T12:53:17.394Z,67.21
2019-02-12T12:55:47.364Z,66.92
2019-02-12T12:58:17.218Z,66.81
2019-02-12T13:00:47.217Z,66.10
2019-02-12T13:03:16.913Z,66.03
2019-02-12T13:05:46.881Z,65.46
2019-02-12T13:08:16.631Z,65.68
2019-02-12T13:10:46.694Z,65.82
2019-02-12T13:13:17.034Z,65.87
2019-02-12T13:15:46.902Z,65.87
2019-02-12T13:18:17.067Z,65.87
2019-02-12T13:20:46.981Z,65.57
2019-02-12T13:23:17.222Z,65.33
2019-02-12T13:25:47.135Z,64.93
2019-02-12T13:28:17.039Z,64.75
2019-02-12T13:30:47.289Z,65.13
2019-02-12T13:33:17.079Z,65.20
2019-02-12T13:35:46.939Z,65.50
2019-02-12T13:38:16.449Z,65.68
2019-02-12T13:40:46.024Z,65.68
2019-02-12T13:43:15.568Z,65.94
2019-02-12T13:45:45.126Z,65.88
2019-02-12T13:48:16.039Z,65.43
2019-02-12T13:50:46.163Z,65.51
2019-02-12T13:53:15.708Z,65.34
2019-02-12T13:55:45.702Z,65.59
2019-02-12T13:58:15.229Z,65.57
2019-02-12T14:00:44.790Z,65.61
2019-02-12T14:03:22.059Z,65.90
2019-02-12T14:05:45.787Z,65.80
2019-02-12T14:08:15.611Z,65.68
2019-02-12T14:10:45.205Z,65.61
2019-02-12T14:13:14.729Z,65.40
2019-02-12T14:15:44.272Z,65.55
2019-02-12T14:18:15.301Z,65.45
2019-02-12T14:20:45.315Z,65.53
2019-02-12T14:23:15.336Z,65.60
2019-02-12T14:25:45.420Z,65.43
2019-02-12T14:28:15.222Z,65.41
2019-02-12T14:30:46.101Z,65.46
2019-02-12T14:33:16.116Z,65.64
2019-02-12T14:35:45.877Z,65.49
2019-02-12T14:38:15.876Z,65.09
2019-02-12T14:40:45.706Z,64.89
2019-02-12T14:43:15.385Z,64.65
2019-02-12T14:45:45.197Z,64.56
2019-02-12T14:48:14.865Z,64.44
2019-02-12T14:50:44.825Z,64.30
2019-02-12T14:53:14.647Z,64.38
2019-02-12T14:55:44.503Z,64.17
2019-02-12T14:58:14.507Z,63.96
2019-02-12T15:00:44.434Z,63.77
2019-02-12T15:03:14.843Z,63.39
2019-02-12T15:05:45.030Z,63.55
2019-02-12T15:08:14.922Z,63.67
2019-02-12T15:10:44.914Z,63.30
2019-02-12T15:13:14.806Z,63.38
2019-02-12T15:15:44.937Z,63.10
2019-02-12T15:18:14.797Z,62.86
2019-02-12T15:20:44.716Z,62.91
2019-02-12T15:23:14.445Z,63.34
2019-02-12T15:25:44.376Z,63.32
2019-02-12T15:28:14.065Z,63.33
2019-02-12T15:30:43.881Z,62.85
2019-02-12T15:33:13.412Z,63.08
2019-02-12T15:35:43.095Z,63.63
2019-02-12T15:38:13.140Z,63.45
2019-02-12T15:40:43.042Z,63.39
2019-02-12T15:43:12.837Z,63.42
2019-02-12T15:45:43.075Z,63.09
2019-02-12T15:48:13.188Z,63.40
2019-02-12T15:50:42.825Z,63.29
2019-02-12T15:53:12.901Z,63.44
2019-02-12T15:55:50.986Z,63.64
2019-02-12T15:58:14.716Z,64.02
2019-02-12T16:00:44.565Z,64.02
2019-02-12T16:03:16.240Z,64.25
2019-02-12T16:05:46.873Z,64.37
2019-02-12T16:08:16.437Z,64.51
2019-02-12T16:10:48.651Z,64.46
2019-02-12T16:13:18.172Z,64.63
2019-02-12T16:15:47.768Z,64.74
2019-02-12T16:18:21.388Z,64.80
2019-02-12T16:20:51.545Z,64.88
2019-02-12T16:23:21.512Z,65.10
2019-02-12T16:25:59.215Z,65.32
2019-02-12T16:28:24.288Z,65.41
2019-02-12T16:30:56.138Z,65.52
2019-02-12T16:33:27.445Z,65.73
2019-02-12T16:35:59.545Z,65.84
2019-02-12T16:38:29.134Z,65.96
2019-02-12T16:41:00.669Z,66.13
2019-02-12T16:43:30.749Z,66.23
2019-02-12T16:46:14.675Z,66.53
2019-02-12T16:48:45.658Z,66.92
2019-02-12T16:51:15.266Z,67.25
2019-02-12T16:53:44.838Z,67.36
2019-02-12T16:56:14.409Z,67.46
2019-02-12T16:58:48.599Z,67.64
2019-02-12T17:01:15.520Z,67.77
2019-02-12T17:03:45.991Z,68.08
2019-02-12T17:06:16.908Z,68.31
2019-02-12T17:08:49.013Z,68.58
2019-02-12T17:11:20.712Z,68.66
2019-02-12T17:13:50.619Z,68.99
2019-02-12T17:16:20.507Z,69.18
2019-02-12T17:18:50.657Z,69.34
2019-02-12T17:21:20.929Z,69.54
2019-02-12T17:23:52.138Z,69.72
2019-02-12T17:26:23.343Z,70.04
2019-02-12T17:28:53.258Z,70.45
2019-02-12T17:31:23.091Z,70.73
2019-02-12T17:33:53.065Z,70.76
2019-02-12T17:36:23.428Z,70.69
2019-02-12T17:38:53.307Z,70.83
2019-02-12T17:41:25.126Z,71.03
2019-02-12T17:43:54.977Z,71.25
2019-02-12T17:46:26.191Z,71.41
2019-02-12T17:48:56.160Z,71.75
2019-02-12T17:51:26.119Z,71.70
2019-02-12T17:53:56.506Z,71.79
2019-02-12T17:56:28.177Z,71.93
2019-02-12T17:58:58.356Z,72.22
2019-02-12T18:01:28.417Z,72.31
2019-02-12T18:03:58.127Z,72.44
2019-02-12T18:06:27.662Z,72.72
2019-02-12T18:09:00.096Z,72.87
2019-02-12T18:11:29.982Z,73.07
2019-02-12T18:14:02.402Z,73.35
2019-02-12T18:16:34.478Z,73.22
2019-02-12T18:19:04.154Z,73.36
2019-02-12T18:21:33.946Z,73.66
2019-02-12T18:24:03.788Z,73.67
2019-02-12T18:26:36.174Z,73.57
2019-02-12T18:29:05.765Z,73.58
2019-02-12T18:31:35.716Z,73.77
2019-02-12T18:34:06.206Z,74.07
2019-02-12T18:36:37.732Z,74.14
2019-02-12T18:39:07.528Z,74.29
2019-02-12T18:41:37.216Z,74.21
2019-02-12T18:44:07.812Z,74.22
2019-02-12T18:46:37.844Z,74.34
2019-02-12T18:49:07.910Z,74.69
2019-02-12T18:51:40.904Z,74.76
2019-02-12T18:54:10.857Z,74.90
2019-02-12T18:56:42.563Z,74.73
2019-02-12T18:59:12.123Z,74.93
2019-02-12T19:01:42.278Z,74.93
2019-02-12T19:04:12.424Z,74.99
2019-02-12T19:06:42.584Z,75.20
2019-02-12T19:09:14.393Z,75.20
2019-02-12T19:11:54.221Z,75.24
2019-02-12T19:14:20.291Z,75.27
2019-02-12T19:16:50.813Z,75.30
2019-02-12T19:19:20.781Z,75.42
2019-02-12T19:21:50.760Z,75.27
2019-02-12T19:24:20.888Z,75.62
2019-02-12T19:26:51.121Z,75.42
2019-02-12T19:29:21.367Z,75.35
2019-02-12T19:31:59.002Z,75.35
2019-02-12T19:34:23.477Z,75.52
2019-02-12T19:36:55.711Z,75.74
2019-02-12T19:39:25.769Z,75.76
2019-02-12T19:41:56.398Z,75.76
2019-02-12T19:44:31.128Z,75.76
2019-02-12T19:47:01.339Z,75.66
2019-02-12T19:49:31.447Z,75.63
2019-02-12T19:52:01.651Z,75.61
2019-02-12T19:54:31.775Z,75.66
2019-02-12T19:57:01.926Z,75.53
2019-02-12T19:59:34.663Z,75.46
2019-02-12T20:02:11.875Z,75.41
2019-02-12T20:04:42.079Z,75.37
2019-02-12T20:07:13.368Z,75.26
2019-02-12T20:09:43.480Z,75.31
2019-02-12T20:12:13.673Z,75.38
2019-02-12T20:14:45.375Z,75.49
2019-02-12T20:17:17.433Z,75.54
2019-02-12T20:19:47.649Z,75.47
2019-02-12T20:22:18.238Z,75.47
2019-02-12T20:24:49.883Z,75.38
2019-02-12T20:27:20.655Z,75.46
2019-02-12T20:29:51.048Z,75.50
2019-02-12T20:32:22.827Z,75.53
2019-02-12T20:34:52.530Z,75.56
2019-02-12T20:37:22.625Z,75.45
2019-02-12T20:39:52.723Z,75.46
2019-02-12T20:42:27.134Z,75.43
2019-02-12T20:44:59.290Z,75.59
2019-02-12T20:47:29.104Z,75.64
2019-02-12T20:49:58.761Z,75.64
2019-02-12T20:52:30.355Z,75.71
2019-02-12T20:54:59.868Z,75.76
2019-02-12T20:57:30.061Z,75.80
2019-02-12T20:59:59.987Z,75.81
2019-02-12T21:02:29.528Z,75.89
2019-02-12T21:04:59.144Z,75.85
2019-02-12T21:07:28.652Z,75.91
2019-02-12T21:09:59.355Z,75.98
2019-02-12T21:12:31.007Z,75.93
2019-02-12T21:15:00.551Z,75.94
2019-02-12T21:17:32.591Z,76.07
2019-02-12T21:20:02.122Z,76.17
2019-02-12T21:22:32.237Z,76.02
2019-02-12T21:25:02.375Z,75.97
2019-02-12T21:27:32.503Z,75.96
2019-02-12T21:30:02.526Z,76.12
2019-02-12T21:32:33.106Z,76.08
2019-02-12T21:35:04.519Z,75.92
2019-02-12T21:37:34.730Z,76.08
2019-02-12T21:40:16.643Z,76.05
2019-02-12T21:42:46.883Z,76.08
2019-02-12T21:45:17.128Z,76.22
2019-02-12T21:47:47.100Z,76.19
2019-02-12T21:50:17.746Z,76.05
2019-02-12T21:52:47.412Z,76.02
2019-02-12T21:55:22.273Z,76.02
2019-02-12T21:57:52.203Z,75.96
2019-02-12T22:00:23.272Z,75.94
2019-02-12T22:02:53.377Z,76.00
2019-02-12T22:05:23.574Z,75.90
2019-02-12T22:07:53.784Z,75.79
2019-02-12T22:10:26.904Z,75.64
2019-02-12T22:12:57.185Z,75.57
2019-02-12T22:15:27.764Z,75.46
2019-02-12T22:17:57.689Z,75.45
2019-02-12T22:20:27.755Z,75.50
2019-02-12T22:22:57.919Z,75.49
2019-02-12T22:25:27.710Z,75.25
2019-02-12T22:27:57.821Z,75.21
2019-02-12T22:30:27.673Z,75.11
2019-02-12T22:32:57.521Z,75.11
2019-02-12T22:35:27.160Z,75.13
2019-02-12T22:37:57.123Z,75.11
2019-02-12T22:40:27.882Z,75.00
2019-02-12T22:42:57.469Z,75.12
2019-02-12T22:45:27.395Z,75.11
2019-02-12T22:47:56.972Z,74.96
2019-02-12T22:50:26.510Z,75.03
2019-02-12T22:52:56.042Z,74.95
2019-02-12T22:55:25.582Z,74.91
2019-02-12T22:57:55.149Z,74.63
2019-02-12T23:00:46.999Z,74.63
2019-02-12T23:03:16.546Z,74.55
2019-02-12T23:05:46.094Z,74.63
2019-02-12T23:08:15.670Z,74.65
2019-02-12T23:10:45.315Z,74.69
2019-02-12T23:13:14.860Z,74.52
2019-02-12T23:15:44.449Z,74.44
2019-02-12T23:18:14.024Z,74.40
2019-02-12T23:20:43.584Z,74.39
2019-02-12T23:23:13.162Z,74.44
2019-02-12T23:25:42.699Z,74.44
2019-02-12T23:28:12.252Z,74.42
2019-02-12T23:30:42.061Z,74.47
2019-02-12T23:33:11.586Z,74.38
2019-02-12T23:35:41.130Z,74.35
2019-02-12T23:38:10.666Z,74.44
2019-02-12T23:40:40.285Z,74.41
2019-02-12T23:43:09.795Z,74.52
2019-02-12T23:45:39.380Z,74.59
2019-02-12T23:48:08.906Z,74.50
2019-02-12T23:50:38.456Z,74.44
2019-02-12T23:53:07.977Z,74.40
2019-02-12T23:55:37.538Z,74.37
2019-02-12T23:58:07.081Z,74.45
